Terminal Aerodrome Forecast
Issued by NWS

Home | Current Version | Previous Version | Text Only | Print | Product List | Glossary On
Versions: 1 2 3 4 5 6 7 8 9 10 11 12 13 14 15 16 17 18 19 20 21 22 23 24 25 26
000
FTUS46 KEKA 011124
TAFCEC
TAF
KCEC 011124Z 0112/0212 12005KT P6SM VCSH OVC150
      TEMPO 0114/0116 -RA BKN050
     FM011600 15006KT P6SM -RA BKN050 OVC080
     FM012300 14005KT 4SM BR FEW004 BKN050 OVC100
     FM020600 15006KT P6SM OVC050=

USA.gov is the U.S. government's official web portal to all federal, state and local government web resources and services.